sensor_id;sensor_type;location;lat;lon;timestamp;pressure;altitude;pressure_sealevel;temperature;humidity
84795;BME280;75026;49.184;16.564;2023-12-22T00:00:00;96245.06;;;20.36;62.50
84795;BME280;75026;49.184;16.564;2023-12-22T00:03:01;96264.09;;;20.37;62.50
84795;BME280;75026;49.184;16.564;2023-12-22T00:06:02;96282.13;;;20.36;62.52
84795;BME280;75026;49.184;16.564;2023-12-22T00:09:03;96278.59;;;20.36;62.62
84795;BME280;75026;49.184;16.564;2023-12-22T00:12:04;96282.91;;;20.37;62.47
84795;BME280;75026;49.184;16.564;2023-12-22T00:15:05;96276.53;;;20.36;62.46
84795;BME280;75026;49.184;16.564;2023-12-22T00:18:06;96290.25;;;20.34;62.65
84795;BME280;75026;49.184;16.564;2023-12-22T00:21:10;96308.00;;;20.31;62.67
84795;BME280;75026;49.184;16.564;2023-12-22T00:24:11;96321.50;;;20.32;62.81
84795;BME280;75026;49.184;16.564;2023-12-22T00:27:12;96318.94;;;20.34;62.64
84795;BME280;75026;49.184;16.564;2023-12-22T00:30:13;96290.47;;;20.30;63.03
84795;BME280;75026;49.184;16.564;2023-12-22T00:33:14;96314.63;;;20.33;63.05
84795;BME280;75026;49.184;16.564;2023-12-22T00:36:14;96314.91;;;20.36;62.76
84795;BME280;75026;49.184;16.564;2023-12-22T00:39:15;96310.31;;;20.32;62.97
84795;BME280;75026;49.184;16.564;2023-12-22T00:42:16;96321.50;;;20.32;63.02
84795;BME280;75026;49.184;16.564;2023-12-22T00:45:17;96320.50;;;20.36;62.84
84795;BME280;75026;49.184;16.564;2023-12-22T00:48:17;96346.63;;;20.32;63.02
84795;BME280;75026;49.184;16.564;2023-12-22T00:51:18;96368.47;;;20.34;62.92
84795;BME280;75026;49.184;16.564;2023-12-22T00:54:19;96423.59;;;20.33;63.26
84795;BME280;75026;49.184;16.564;2023-12-22T00:57:20;96402.50;;;20.32;63.03
84795;BME280;75026;49.184;16.564;2023-12-22T01:00:21;96394.13;;;20.32;63.11
84795;BME280;75026;49.184;16.564;2023-12-22T01:03:22;96382.94;;;20.32;63.10
84795;BME280;75026;49.184;16.564;2023-12-22T01:06:22;96383.94;;;20.29;63.27
84795;BME280;75026;49.184;16.564;2023-12-22T01:09:23;96380.91;;;20.33;62.99
84795;BME280;75026;49.184;16.564;2023-12-22T01:12:24;96387.28;;;20.33;63.09
84795;BME280;75026;49.184;16.564;2023-12-22T01:15:25;96387.28;;;20.33;62.95
84795;BME280;75026;49.184;16.564;2023-12-22T01:18:25;96390.56;;;20.32;63.04
84795;BME280;75026;49.184;16.564;2023-12-22T01:21:29;96380.16;;;20.32;63.33
84795;BME280;75026;49.184;16.564;2023-12-22T01:24:30;96390.28;;;20.30;63.48
84795;BME280;75026;49.184;16.564;2023-12-22T01:27:31;96393.09;;;20.30;63.24
84795;BME280;75026;49.184;16.564;2023-12-22T01:30:32;96390.06;;;20.33;63.17
84795;BME280;75026;49.184;16.564;2023-12-22T01:33:33;96401.25;;;20.33;63.07
84795;BME280;75026;49.184;16.564;2023-12-22T01:36:34;96406.81;;;20.33;63.05
84795;BME280;75026;49.184;16.564;2023-12-22T01:39:35;96403.78;;;20.31;62.96
84795;BME280;75026;49.184;16.564;2023-12-22T01:42:35;96409.38;;;20.31;63.11
84795;BME280;75026;49.184;16.564;2023-12-22T01:45:36;96402.22;;;20.30;62.90
84795;BME280;75026;49.184;16.564;2023-12-22T01:48:37;96403.50;;;20.29;63.06
84795;BME280;75026;49.184;16.564;2023-12-22T01:51:39;96408.81;;;20.27;62.97
84795;BME280;75026;49.184;16.564;2023-12-22T01:54:40;96403.50;;;20.29;63.00
84795;BME280;75026;49.184;16.564;2023-12-22T01:57:41;96411.59;;;20.27;63.20
84795;BME280;75026;49.184;16.564;2023-12-22T02:00:43;96408.31;;;20.29;63.04
84795;BME280;75026;49.184;16.564;2023-12-22T02:03:44;96398.16;;;20.26;63.30
84795;BME280;75026;49.184;16.564;2023-12-22T02:06:45;96392.03;;;20.27;63.16
84795;BME280;75026;49.184;16.564;2023-12-22T02:09:46;96393.59;;;20.28;63.24
84795;BME280;75026;49.184;16.564;2023-12-22T02:12:47;96403.00;;;20.31;63.22
84795;BME280;75026;49.184;16.564;2023-12-22T02:16:00;96403.00;;;20.31;62.91
84795;BME280;75026;49.184;16.564;2023-12-22T02:19:12;96399.66;;;20.27;63.29
84795;BME280;75026;49.184;16.564;2023-12-22T02:22:15;96399.19;;;20.28;63.23
84795;BME280;75026;49.184;16.564;2023-12-22T02:25:16;96401.69;;;20.26;63.13
84795;BME280;75026;49.184;16.564;2023-12-22T02:28:19;96404.78;;;20.28;63.17
84795;BME280;75026;49.184;16.564;2023-12-22T02:31:37;96403.44;;;20.24;63.18
84795;BME280;75026;49.184;16.564;2023-12-22T02:34:41;96408.31;;;20.29;63.16
84795;BME280;75026;49.184;16.564;2023-12-22T02:37:42;96408.81;;;20.27;63.47
84795;BME280;75026;49.184;16.564;2023-12-22T02:40:45;96420.22;;;20.24;63.36
84795;BME280;75026;49.184;16.564;2023-12-22T02:43:46;96423.28;;;20.26;63.20
84795;BME280;75026;49.184;16.564;2023-12-22T02:46:47;96424.03;;;20.26;63.31
84795;BME280;75026;49.184;16.564;2023-12-22T02:49:48;96434.47;;;20.26;63.32
84795;BME280;75026;49.184;16.564;2023-12-22T02:52:49;96435.22;;;20.26;63.22
84795;BME280;75026;49.184;16.564;2023-12-22T02:55:49;96436.50;;;20.25;63.23
84795;BME280;75026;49.184;16.564;2023-12-22T02:58:50;96418.47;;;20.26;63.26
84795;BME280;75026;49.184;16.564;2023-12-22T03:01:51;96406.00;;;20.22;63.59
84795;BME280;75026;49.184;16.564;2023-12-22T03:04:52;96402.69;;;20.23;63.72
84795;BME280;75026;49.184;16.564;2023-12-22T03:07:52;96401.69;;;20.26;63.60
84795;BME280;75026;49.184;16.564;2023-12-22T03:10:53;96406.75;;;20.22;63.61
84795;BME280;75026;49.184;16.564;2023-12-22T03:13:53;96408.03;;;20.27;63.52
84795;BME280;75026;49.184;16.564;2023-12-22T03:16:54;96413.38;;;20.25;63.76
84795;BME280;75026;49.184;16.564;2023-12-22T03:19:55;96401.44;;;20.24;63.64
84795;BME280;75026;49.184;16.564;2023-12-22T03:22:56;96400.19;;;20.25;63.71
84795;BME280;75026;49.184;16.564;2023-12-22T03:25:56;96398.38;;;20.22;63.75
84795;BME280;75026;49.184;16.564;2023-12-22T03:28:57;96404.00;;;20.28;63.54
84795;BME280;75026;49.184;16.564;2023-12-22T03:31:58;96414.91;;;20.26;63.39
84795;BME280;75026;49.184;16.564;2023-12-22T03:34:59;96411.06;;;20.23;63.50
84795;BME280;75026;49.184;16.564;2023-12-22T03:37:59;96407.50;;;20.23;63.66
84795;BME280;75026;49.184;16.564;2023-12-22T03:41:00;96411.59;;;20.27;63.37
84795;BME280;75026;49.184;16.564;2023-12-22T03:44:01;96414.41;;;20.27;63.46
84795;BME280;75026;49.184;16.564;2023-12-22T03:47:02;96408.81;;;20.27;63.55
84795;BME280;75026;49.184;16.564;2023-12-22T03:50:02;96402.47;;;20.27;63.46
84795;BME280;75026;49.184;16.564;2023-12-22T03:53:03;96407.03;;;20.24;63.57
84795;BME280;75026;49.184;16.564;2023-12-22T03:56:04;96411.34;;;20.25;63.28
84795;BME280;75026;49.184;16.564;2023-12-22T03:59:05;96409.81;;;20.24;63.42
84795;BME280;75026;49.184;16.564;2023-12-22T04:02:05;96403.97;;;20.22;63.44
84795;BME280;75026;49.184;16.564;2023-12-22T04:05:06;96408.78;;;20.22;63.41
84795;BME280;75026;49.184;16.564;2023-12-22T04:08:07;96414.63;;;20.24;63.36
84795;BME280;75026;49.184;16.564;2023-12-22T04:11:08;96403.97;;;20.22;63.48
84795;BME280;75026;49.184;16.564;2023-12-22T04:14:08;96398.38;;;20.22;63.43
84795;BME280;75026;49.184;16.564;2023-12-22T04:17:10;96393.28;;;20.21;63.44
84795;BME280;75026;49.184;16.564;2023-12-22T04:20:10;96398.66;;;20.24;63.32
84795;BME280;75026;49.184;16.564;2023-12-22T04:23:11;96388.69;;;20.18;63.42
84795;BME280;75026;49.184;16.564;2023-12-22T04:26:12;96393.28;;;20.21;63.39
84795;BME280;75026;49.184;16.564;2023-12-22T04:29:14;96386.91;;;20.20;63.42
84795;BME280;75026;49.184;16.564;2023-12-22T04:32:15;96377.81;;;20.25;63.14
84795;BME280;75026;49.184;16.564;2023-12-22T04:35:16;96391.50;;;20.23;63.20
84795;BME280;75026;49.184;16.564;2023-12-22T04:38:16;96385.94;;;20.23;63.36
84795;BME280;75026;49.184;16.564;2023-12-22T04:41:17;96402.69;;;20.23;63.47
84795;BME280;75026;49.184;16.564;2023-12-22T04:44:18;96402.69;;;20.23;63.31
84795;BME280;75026;49.184;16.564;2023-12-22T04:47:19;96401.16;;;20.22;63.46
84795;BME280;75026;49.184;16.564;2023-12-22T04:50:19;96399.66;;;20.21;63.14
84795;BME280;75026;49.184;16.564;2023-12-22T04:53:20;96382.38;;;20.23;63.28
84795;BME280;75026;49.184;16.564;2023-12-22T04:56:21;96401.16;;;20.22;63.23
84795;BME280;75026;49.184;16.564;2023-12-22T04:59:22;96395.81;;;20.19;63.17
84795;BME280;75026;49.184;16.564;2023-12-22T05:02:23;96392.50;;;20.20;63.33
84795;BME280;75026;49.184;16.564;2023-12-22T05:05:24;96399.91;;;20.23;63.10
84795;BME280;75026;49.184;16.564;2023-12-22T05:08:24;96404.47;;;20.21;63.29
84795;BME280;75026;49.184;16.564;2023-12-22T05:11:25;96399.91;;;20.23;63.21
84795;BME280;75026;49.184;16.564;2023-12-22T05:14:26;96402.44;;;20.21;63.45
84795;BME280;75026;49.184;16.564;2023-12-22T05:17:26;96409.25;;;20.20;63.40
84795;BME280;75026;49.184;16.564;2023-12-22T05:20:27;96402.16;;;20.19;63.31
84795;BME280;75026;49.184;16.564;2023-12-22T05:23:28;96395.31;;;20.20;63.59
84795;BME280;75026;49.184;16.564;2023-12-22T05:26:28;96410.28;;;20.17;63.30
84795;BME280;75026;49.184;16.564;2023-12-22T05:29:32;96396.09;;;20.26;63.29
84795;BME280;75026;49.184;16.564;2023-12-22T05:32:32;96402.75;;;20.34;63.01
84795;BME280;75026;49.184;16.564;2023-12-22T05:35:33;96415.19;;;20.28;63.20
84795;BME280;75026;49.184;16.564;2023-12-22T05:38:38;96418.28;;;20.36;62.82
84795;BME280;75026;49.184;16.564;2023-12-22T05:41:39;96415.03;;;20.43;62.57
84795;BME280;75026;49.184;16.564;2023-12-22T05:44:39;96401.75;;;20.38;62.26
84795;BME280;75026;49.184;16.564;2023-12-22T05:47:40;96401.28;;;20.39;62.63
84795;BME280;75026;49.184;16.564;2023-12-22T05:50:41;96395.13;;;20.35;62.82
84795;BME280;75026;49.184;16.564;2023-12-22T05:53:42;96406.81;;;20.33;63.08
84795;BME280;75026;49.184;16.564;2023-12-22T05:56:43;96421.59;;;20.40;62.84
84795;BME280;75026;49.184;16.564;2023-12-22T05:59:43;96416.25;;;20.36;62.95
84795;BME280;75026;49.184;16.564;2023-12-22T06:02:44;96430.25;;;20.42;62.79
84795;BME280;75026;49.184;16.564;2023-12-22T06:05:45;96422.38;;;20.40;62.91
84795;BME280;75026;49.184;16.564;2023-12-22T06:08:45;96442.19;;;20.42;62.90
84795;BME280;75026;49.184;16.564;2023-12-22T06:11:46;96427.97;;;20.46;62.76
84795;BME280;75026;49.184;16.564;2023-12-22T06:14:47;96431.31;;;20.50;62.74
84795;BME280;75026;49.184;16.564;2023-12-22T06:17:48;96438.25;;;20.60;62.46
84795;BME280;75026;49.184;16.564;2023-12-22T06:20:49;96440.94;;;20.49;62.31
84795;BME280;75026;49.184;16.564;2023-12-22T06:23:49;96442.91;;;20.31;59.44
84795;BME280;75026;49.184;16.564;2023-12-22T06:26:50;96450.28;;;20.03;59.27
84795;BME280;75026;49.184;16.564;2023-12-22T06:29:51;96463.50;;;19.76;58.04
84795;BME280;75026;49.184;16.564;2023-12-22T06:32:52;96467.41;;;19.84;56.80
84795;BME280;75026;49.184;16.564;2023-12-22T06:35:53;96457.75;;;19.85;59.42
84795;BME280;75026;49.184;16.564;2023-12-22T06:38:54;96461.19;;;20.01;59.70
84795;BME280;75026;49.184;16.564;2023-12-22T06:41:58;96453.66;;;20.13;60.06
84795;BME280;75026;49.184;16.564;2023-12-22T06:44:59;96458.25;;;20.16;60.31
84795;BME280;75026;49.184;16.564;2023-12-22T06:47:59;96446.59;;;20.17;60.19
84795;BME280;75026;49.184;16.564;2023-12-22T06:51:00;96460.78;;;20.14;60.02
84795;BME280;75026;49.184;16.564;2023-12-22T06:54:02;96456.50;;;20.18;60.46
84795;BME280;75026;49.184;16.564;2023-12-22T06:57:03;96460.56;;;20.17;60.41
84795;BME280;75026;49.184;16.564;2023-12-22T07:00:05;96469.72;;;20.23;60.31
84795;BME280;75026;49.184;16.564;2023-12-22T07:03:06;96471.75;;;20.23;60.41
84795;BME280;75026;49.184;16.564;2023-12-22T07:06:07;96481.19;;;20.25;60.36
84795;BME280;75026;49.184;16.564;2023-12-22T07:12:12;96491.59;;;20.25;60.36
84795;BME280;75026;49.184;16.564;2023-12-22T07:15:12;96502.28;;;20.26;60.26
84795;BME280;75026;49.184;16.564;2023-12-22T07:18:13;96516.25;;;20.26;60.36
84795;BME280;75026;49.184;16.564;2023-12-22T07:21:17;96518.56;;;20.28;60.36
84795;BME280;75026;49.184;16.564;2023-12-22T07:24:19;96493.88;;;20.26;60.40
84795;BME280;75026;49.184;16.564;2023-12-22T07:27:19;96476.66;;;20.28;60.38
84795;BME280;75026;49.184;16.564;2023-12-22T07:30:20;96471.53;;;20.26;60.29
84795;BME280;75026;49.184;16.564;2023-12-22T07:33:21;96482.22;;;20.28;60.42
84795;BME280;75026;49.184;16.564;2023-12-22T07:36:22;96482.47;;;20.24;60.50
84795;BME280;75026;49.184;16.564;2023-12-22T07:39:22;96463.16;;;20.26;60.54
84795;BME280;75026;49.184;16.564;2023-12-22T07:42:23;96479.91;;;20.26;60.47
84795;BME280;75026;49.184;16.564;2023-12-22T07:45:23;96475.84;;;20.27;60.47
84795;BME280;75026;49.184;16.564;2023-12-22T07:48:24;96491.38;;;20.28;60.23
84795;BME280;75026;49.184;16.564;2023-12-22T07:51:25;96478.41;;;20.25;60.53
84795;BME280;75026;49.184;16.564;2023-12-22T07:54:26;96480.91;;;20.23;60.63
84795;BME280;75026;49.184;16.564;2023-12-22T07:57:26;96484.75;;;20.26;60.64
84795;BME280;75026;49.184;16.564;2023-12-22T08:00:27;96488.03;;;20.24;60.82
84795;BME280;75026;49.184;16.564;2023-12-22T08:03:28;96495.38;;;20.22;60.60
84795;BME280;75026;49.184;16.564;2023-12-22T08:06:29;96499.66;;;20.17;60.85
84795;BME280;75026;49.184;16.564;2023-12-22T08:09:29;96518.22;;;20.20;60.88
84795;BME280;75026;49.184;16.564;2023-12-22T08:12:30;96520.53;;;20.22;60.66
84795;BME280;75026;49.184;16.564;2023-12-22T08:15:32;96524.84;;;20.23;60.81
84795;BME280;75026;49.184;16.564;2023-12-22T08:18:33;96524.06;;;20.22;60.66
84795;BME280;75026;49.184;16.564;2023-12-22T08:21:34;96545.88;;;20.18;60.80
84795;BME280;75026;49.184;16.564;2023-12-22T08:24:35;96548.19;;;20.20;60.74
84795;BME280;75026;49.184;16.564;2023-12-22T08:27:35;96548.19;;;20.20;60.69
84795;BME280;75026;49.184;16.564;2023-12-22T08:30:36;96540.09;;;20.22;60.50
84795;BME280;75026;49.184;16.564;2023-12-22T08:33:37;96543.91;;;20.24;60.43
84795;BME280;75026;49.184;16.564;2023-12-22T08:36:41;96554.59;;;20.26;60.53
84795;BME280;75026;49.184;16.564;2023-12-22T08:39:41;96551.78;;;20.26;60.26
84795;BME280;75026;49.184;16.564;2023-12-22T08:42:42;96541.59;;;20.23;60.51
84795;BME280;75026;49.184;16.564;2023-12-22T08:45:43;96549.50;;;20.24;60.46
84795;BME280;75026;49.184;16.564;2023-12-22T08:48:44;96565.47;;;20.24;60.44
84795;BME280;75026;49.184;16.564;2023-12-22T08:51:44;96588.03;;;20.20;60.60
84795;BME280;75026;49.184;16.564;2023-12-22T08:54:45;96558.09;;;20.21;60.64
84795;BME280;75026;49.184;16.564;2023-12-22T08:57:45;96563.19;;;20.22;60.54
84795;BME280;75026;49.184;16.564;2023-12-22T09:00:46;96564.25;;;20.25;60.33
84795;BME280;75026;49.184;16.564;2023-12-22T09:03:48;96563.72;;;20.26;60.56
84795;BME280;75026;49.184;16.564;2023-12-22T09:06:52;96562.22;;;20.25;60.46
84795;BME280;75026;49.184;16.564;2023-12-22T09:09:52;96557.38;;;20.26;60.25
84795;BME280;75026;49.184;16.564;2023-12-22T09:12:53;96562.22;;;20.25;60.41
84795;BME280;75026;49.184;16.564;2023-12-22T09:15:56;96554.38;;;20.29;60.26
84795;BME280;75026;49.184;16.564;2023-12-22T09:18:57;96539.38;;;20.01;61.22
84795;BME280;75026;49.184;16.564;2023-12-22T09:21:58;96527.91;;;20.25;60.70
84795;BME280;75026;49.184;16.564;2023-12-22T09:24:59;96524.91;;;20.28;60.60
84795;BME280;75026;49.184;16.564;2023-12-22T09:27:59;96524.13;;;20.28;60.62
84795;BME280;75026;49.184;16.564;2023-12-22T09:31:00;96519.56;;;20.30;60.50
84795;BME280;75026;49.184;16.564;2023-12-22T09:34:01;96536.06;;;20.28;60.51
84795;BME280;75026;49.184;16.564;2023-12-22T09:37:03;96527.41;;;20.26;60.56
84795;BME280;75026;49.184;16.564;2023-12-22T09:40:04;96516.78;;;20.30;60.68
84795;BME280;75026;49.184;16.564;2023-12-22T09:43:06;96535.31;;;20.28;60.58
84795;BME280;75026;49.184;16.564;2023-12-22T09:46:07;96534.28;;;20.25;60.54
84795;BME280;75026;49.184;16.564;2023-12-22T09:49:09;96552.34;;;20.30;60.48
84795;BME280;75026;49.184;16.564;2023-12-22T09:52:11;96535.09;;;20.31;60.44
84795;BME280;75026;49.184;16.564;2023-12-22T09:55:13;96529.97;;;20.30;60.47
84795;BME280;75026;49.184;16.564;2023-12-22T09:58:14;96527.47;;;20.32;60.37
84795;BME280;75026;49.184;16.564;2023-12-22T10:01:17;96525.91;;;20.31;60.55
84795;BME280;75026;49.184;16.564;2023-12-22T10:04:21;96511.47;;;20.32;60.52
84795;BME280;75026;49.184;16.564;2023-12-22T10:07:23;96517.31;;;20.34;60.43
84795;BME280;75026;49.184;16.564;2023-12-22T10:10:24;96525.44;;;20.32;60.64
84795;BME280;75026;49.184;16.564;2023-12-22T10:13:26;96532.31;;;20.31;60.39
84795;BME280;75026;49.184;16.564;2023-12-22T10:16:28;96543.22;;;20.35;60.62
84795;BME280;75026;49.184;16.564;2023-12-22T10:19:29;96556.72;;;20.37;60.59
84795;BME280;75026;49.184;16.564;2023-12-22T10:22:29;96591.22;;;20.33;60.48
84795;BME280;75026;49.184;16.564;2023-12-22T10:25:30;96579.28;;;20.33;60.49
84795;BME280;75026;49.184;16.564;2023-12-22T10:28:32;96582.34;;;20.35;60.37
84795;BME280;75026;49.184;16.564;2023-12-22T10:31:40;96578.53;;;20.32;60.41
84795;BME280;75026;49.184;16.564;2023-12-22T10:34:41;96579.78;;;20.31;60.49
84795;BME280;75026;49.184;16.564;2023-12-22T10:37:42;96568.63;;;20.31;60.43
84795;BME280;75026;49.184;16.564;2023-12-22T10:40:42;96559.94;;;20.29;60.54
84795;BME280;75026;49.184;16.564;2023-12-22T10:43:43;96595.00;;;20.30;60.51
84795;BME280;75026;49.184;16.564;2023-12-22T10:46:44;96600.13;;;20.32;60.42
84795;BME280;75026;49.184;16.564;2023-12-22T10:49:45;96588.41;;;20.28;60.54
84795;BME280;75026;49.184;16.564;2023-12-22T10:52:50;96601.56;;;20.27;60.45
84795;BME280;75026;49.184;16.564;2023-12-22T10:55:51;96576.19;;;20.25;60.66
84795;BME280;75026;49.184;16.564;2023-12-22T10:58:53;96590.41;;;20.27;60.52
84795;BME280;75026;49.184;16.564;2023-12-22T11:01:57;96593.19;;;20.27;60.48
84795;BME280;75026;49.184;16.564;2023-12-22T11:05:03;96578.00;;;20.28;60.48
84795;BME280;75026;49.184;16.564;2023-12-22T11:08:10;96582.31;;;20.29;60.50
84795;BME280;75026;49.184;16.564;2023-12-22T11:11:27;96570.81;;;20.22;60.55
84795;BME280;75026;49.184;16.564;2023-12-22T11:14:31;96563.03;;;20.31;60.40
84795;BME280;75026;49.184;16.564;2023-12-22T11:17:33;96558.69;;;20.30;60.48
84795;BME280;75026;49.184;16.564;2023-12-22T11:20:37;96545.22;;;20.29;60.56
84795;BME280;75026;49.184;16.564;2023-12-22T11:23:38;96551.84;;;20.31;60.33
84795;BME280;75026;49.184;16.564;2023-12-22T11:26:41;96543.19;;;20.29;60.78
84795;BME280;75026;49.184;16.564;2023-12-22T11:29:49;96551.56;;;20.29;60.67
84795;BME280;75026;49.184;16.564;2023-12-22T11:32:51;96550.03;;;20.28;60.72
84795;BME280;75026;49.184;16.564;2023-12-22T11:35:55;96553.09;;;20.30;60.64
84795;BME280;75026;49.184;16.564;2023-12-22T11:38:56;96556.41;;;20.29;60.69
84795;BME280;75026;49.184;16.564;2023-12-22T11:41:57;96555.88;;;20.30;60.81
84795;BME280;75026;49.184;16.564;2023-12-22T11:44:59;96547.78;;;20.32;60.92
84795;BME280;75026;49.184;16.564;2023-12-22T11:48:08;96533.28;;;20.28;60.81
84795;BME280;75026;49.184;16.564;2023-12-22T11:51:13;96559.72;;;20.33;60.67
84795;BME280;75026;49.184;16.564;2023-12-22T11:54:45;96541.88;;;20.25;60.82
84795;BME280;75026;49.184;16.564;2023-12-22T11:57:47;96545.75;;;20.33;60.76
84795;BME280;75026;49.184;16.564;2023-12-22T12:00:52;96541.22;;;20.36;60.60
84795;BME280;75026;49.184;16.564;2023-12-22T12:04:01;96565.56;;;20.35;60.60
84795;BME280;75026;49.184;16.564;2023-12-22T12:10:52;96597.59;;;20.34;60.48
84795;BME280;75026;49.184;16.564;2023-12-22T12:13:54;96593.75;;;20.31;60.46
84795;BME280;75026;49.184;16.564;2023-12-22T12:17:06;96578.78;;;20.34;60.53
84795;BME280;75026;49.184;16.564;2023-12-22T12:20:12;96587.16;;;20.34;60.43
84795;BME280;75026;49.184;16.564;2023-12-22T12:23:14;96608.72;;;20.28;60.38
84795;BME280;75026;49.184;16.564;2023-12-22T12:26:15;96623.22;;;20.32;60.49
84795;BME280;75026;49.184;16.564;2023-12-22T12:29:16;96613.03;;;20.29;60.57
84795;BME280;75026;49.184;16.564;2023-12-22T12:32:18;96634.13;;;20.30;60.46
84795;BME280;75026;49.184;16.564;2023-12-22T12:35:19;96649.34;;;20.29;60.60
84795;BME280;75026;49.184;16.564;2023-12-22T12:38:22;96666.88;;;20.30;60.41
84795;BME280;75026;49.184;16.564;2023-12-22T12:41:31;96643.00;;;20.29;60.30
84795;BME280;75026;49.184;16.564;2023-12-22T12:44:33;96642.50;;;20.30;60.47
84795;BME280;75026;49.184;16.564;2023-12-22T12:47:35;96660.00;;;20.05;61.03
84795;BME280;75026;49.184;16.564;2023-12-22T12:50:36;96643.69;;;20.24;60.67
84795;BME280;75026;49.184;16.564;2023-12-22T12:53:37;96626.16;;;20.23;60.48
84795;BME280;75026;49.184;16.564;2023-12-22T12:56:43;96622.13;;;20.24;60.48
84795;BME280;75026;49.184;16.564;2023-12-22T12:59:48;96622.34;;;20.21;60.49
84795;BME280;75026;49.184;16.564;2023-12-22T13:02:49;96647.28;;;20.24;60.51
84795;BME280;75026;49.184;16.564;2023-12-22T13:05:49;96640.44;;;20.25;60.41
84795;BME280;75026;49.184;16.564;2023-12-22T13:08:53;96644.97;;;20.23;60.46
84795;BME280;75026;49.184;16.564;2023-12-22T13:11:54;96647.53;;;20.26;60.37
84795;BME280;75026;49.184;16.564;2023-12-22T13:14:54;96641.91;;;20.21;60.48
84795;BME280;75026;49.184;16.564;2023-12-22T13:17:55;96631.28;;;20.25;60.15
84795;BME280;75026;49.184;16.564;2023-12-22T13:20:56;96638.91;;;20.24;60.56
84795;BME280;75026;49.184;16.564;2023-12-22T13:24:16;96637.78;;;20.16;60.63
84795;BME280;75026;49.184;16.564;2023-12-22T13:27:17;96634.56;;;20.23;60.43
84795;BME280;75026;49.184;16.564;2023-12-22T13:30:34;96645.69;;;20.18;60.40
84795;BME280;75026;49.184;16.564;2023-12-22T13:33:36;96625.41;;;20.23;60.35
84795;BME280;75026;49.184;16.564;2023-12-22T13:36:39;96637.34;;;20.23;60.43
84795;BME280;75026;49.184;16.564;2023-12-22T13:39:39;96638.41;;;20.26;60.13
84795;BME280;75026;49.184;16.564;2023-12-22T13:42:40;96626.47;;;20.25;60.12
84795;BME280;75026;49.184;16.564;2023-12-22T13:45:43;96628.97;;;20.23;60.36
84795;BME280;75026;49.184;16.564;2023-12-22T13:48:53;96627.72;;;20.24;60.22
84795;BME280;75026;49.184;16.564;2023-12-22T13:51:54;96619.56;;;20.21;60.47
84795;BME280;75026;49.184;16.564;2023-12-22T13:54:55;96618.56;;;20.24;60.40
84795;BME280;75026;49.184;16.564;2023-12-22T13:58:00;96615.00;;;20.23;60.29
84795;BME280;75026;49.184;16.564;2023-12-22T14:01:12;96610.13;;;20.18;60.32
84795;BME280;75026;49.184;16.564;2023-12-22T14:04:13;96599.22;;;20.20;60.42
84795;BME280;75026;49.184;16.564;2023-12-22T14:07:14;96581.69;;;20.20;60.34
84795;BME280;75026;49.184;16.564;2023-12-22T14:10:15;96601.75;;;20.18;60.46
84795;BME280;75026;49.184;16.564;2023-12-22T14:13:16;96597.97;;;20.21;60.47
84795;BME280;75026;49.184;16.564;2023-12-22T14:16:17;96584.72;;;20.16;60.49
84795;BME280;75026;49.184;16.564;2023-12-22T14:19:17;96580.94;;;20.19;60.27
84795;BME280;75026;49.184;16.564;2023-12-22T14:22:18;96585.00;;;20.18;60.48
84795;BME280;75026;49.184;16.564;2023-12-22T14:25:19;96580.94;;;20.19;60.33
84795;BME280;75026;49.184;16.564;2023-12-22T14:28:19;96575.34;;;20.19;60.34
84795;BME280;75026;49.184;16.564;2023-12-22T14:31:21;96554.53;;;20.20;60.23
84795;BME280;75026;49.184;16.564;2023-12-22T14:34:22;96572.28;;;20.17;60.33
84795;BME280;75026;49.184;16.564;2023-12-22T14:37:23;96573.81;;;20.18;60.35
84795;BME280;75026;49.184;16.564;2023-12-22T14:40:23;96563.91;;;20.17;60.33
84795;BME280;75026;49.184;16.564;2023-12-22T14:43:25;96576.31;;;20.16;60.40
84795;BME280;75026;49.184;16.564;2023-12-22T14:46:29;96575.09;;;20.17;60.38
84795;BME280;75026;49.184;16.564;2023-12-22T14:49:30;96566.97;;;20.19;60.28
84795;BME280;75026;49.184;16.564;2023-12-22T14:52:31;96556.28;;;20.18;60.39
84795;BME280;75026;49.184;16.564;2023-12-22T14:55:35;96557.06;;;20.18;60.30
84795;BME280;75026;49.184;16.564;2023-12-22T14:58:35;96532.91;;;20.15;60.40
84795;BME280;75026;49.184;16.564;2023-12-22T15:01:39;96558.81;;;20.16;60.31
84795;BME280;75026;49.184;16.564;2023-12-22T15:04:39;96563.97;;;19.97;60.64
84795;BME280;75026;49.184;16.564;2023-12-22T15:07:40;96562.34;;;20.16;60.35
84795;BME280;75026;49.184;16.564;2023-12-22T15:10:41;96556.00;;;20.16;60.31
84795;BME280;75026;49.184;16.564;2023-12-22T15:13:42;96566.72;;;20.17;60.10
84795;BME280;75026;49.184;16.564;2023-12-22T15:16:43;96569.22;;;20.15;60.36
84795;BME280;75026;49.184;16.564;2023-12-22T15:19:46;96553.22;;;20.16;60.35
84795;BME280;75026;49.184;16.564;2023-12-22T15:22:46;96555.00;;;20.13;60.37
84795;BME280;75026;49.184;16.564;2023-12-22T15:25:47;96560.84;;;20.15;60.22
84795;BME280;75026;49.184;16.564;2023-12-22T15:28:47;96549.94;;;20.17;60.36
84795;BME280;75026;49.184;16.564;2023-12-22T15:31:48;96574.03;;;20.15;60.25
84795;BME280;75026;49.184;16.564;2023-12-22T15:34:49;96582.13;;;20.13;60.22
84795;BME280;75026;49.184;16.564;2023-12-22T15:37:50;96575.56;;;20.16;60.28
84795;BME280;75026;49.184;16.564;2023-12-22T15:40:51;96562.09;;;20.14;60.20
84795;BME280;75026;49.184;16.564;2023-12-22T15:43:52;96587.25;;;20.14;60.33
84795;BME280;75026;49.184;16.564;2023-12-22T15:46:53;96589.53;;;20.16;60.19
84795;BME280;75026;49.184;16.564;2023-12-22T15:49:54;96593.09;;;20.16;60.06
84795;BME280;75026;49.184;16.564;2023-12-22T15:52:55;96585.44;;;20.11;60.30
84795;BME280;75026;49.184;16.564;2023-12-22T15:55:56;96594.09;;;20.13;60.21